Time;durP1;ratioP1;P1;durP2;ratioP2;P2;SDS_P1;SDS_P2;PMS_P1;PMS_P2;Temp;Humidity;BMP_temperature;BMP_pressure;BME280_temperature;BME280_humidity;BME280_pressure;Samples;Min_cycle;Max_cycle;Signal;HPM_P1;HPM_P2
2021/05/02 00:02:16;;;;;;;19.53;12.43;;;9.10;90.00;;;;;;5094368;28;20484;-86
2021/05/02 00:04:42;;;;;;;18.77;13.00;;;9.10;90.00;;;;;;5094464;28;20020;-86
2021/05/02 00:07:08;;;;;;;18.47;12.43;;;9.00;90.10;;;;;;5094246;28;20353;-86
2021/05/02 00:09:34;;;;;;;20.13;13.10;;;9.00;90.10;;;;;;5093931;28;20383;-86
2021/05/02 00:12:00;;;;;;;17.63;12.60;;;9.00;90.20;;;;;;5094182;28;20063;-86
2021/05/02 00:14:27;;;;;;;18.50;13.17;;;8.90;90.20;;;;;;5094363;28;20039;-86
2021/05/02 00:16:53;;;;;;;18.40;13.03;;;8.90;90.50;;;;;;5094246;28;20547;-86
2021/05/02 00:19:20;;;;;;;18.23;13.10;;;8.70;90.50;;;;;;5093655;28;20031;-86
2021/05/02 00:21:47;;;;;;;19.10;13.23;;;8.70;90.70;;;;;;5094409;28;20035;-86
2021/05/02 00:24:14;;;;;;;18.77;12.77;;;8.50;90.90;;;;;;5112411;28;20419;-86
2021/05/02 00:26:40;;;;;;;19.33;13.03;;;8.40;91.10;;;;;;5094213;28;20054;-87
2021/05/02 00:29:08;;;;;;;20.47;12.77;;;8.40;91.20;;;;;;5093578;28;20035;-86
2021/05/02 00:31:34;;;;;;;21.63;13.23;;;8.40;91.30;;;;;;5112404;28;20039;-87
2021/05/02 00:34:00;;;;;;;18.83;12.83;;;8.30;91.50;;;;;;5094047;28;20023;-86
2021/05/02 00:36:26;;;;;;;17.37;12.80;;;8.50;91.40;;;;;;5094005;28;20028;-86
2021/05/02 00:38:52;;;;;;;17.70;12.27;;;8.40;91.30;;;;;;5093738;28;20496;-86
2021/05/02 00:41:27;;;;;;;19.27;12.30;;;8.40;91.60;;;;;;5093886;28;20195;-86
2021/05/02 00:44:04;;;;;;;17.37;12.37;;;8.40;91.60;;;;;;5094203;28;20043;-86
2021/05/02 00:47:02;;;;;;;20.43;12.50;;;8.40;91.60;;;;;;5093635;28;20027;-86
2021/05/02 00:49:52;;;;;;;21.60;11.93;;;8.40;91.60;;;;;;5093494;28;20065;-86
2021/05/02 00:52:30;;;;;;;19.93;12.80;;;8.30;91.80;;;;;;5112241;28;20407;-86
2021/05/02 00:55:08;;;;;;;22.42;12.63;;;8.30;91.60;;;;;;5094312;28;20039;-86
2021/05/02 00:57:59;;;;;;;19.43;12.30;;;8.40;91.60;;;;;;5093888;28;20373;-86
2021/05/02 01:00:30;;;;;;;17.90;12.23;;;8.40;91.60;;;;;;5081871;28;20038;-87
2021/05/02 01:02:59;;;;;;;17.70;12.77;;;8.40;91.70;;;;;;5093895;28;20024;-86
2021/05/02 01:05:27;;;;;;;18.48;12.63;;;8.40;91.70;;;;;;5094743;28;20111;-86
2021/05/02 01:07:58;;;;;;;17.43;12.33;;;8.30;91.80;;;;;;5097830;28;20039;-86
2021/05/02 01:10:24;;;;;;;21.23;12.87;;;8.30;92.10;;;;;;5115397;28;20024;-85
2021/05/02 01:12:53;;;;;;;16.73;11.57;;;8.30;92.00;;;;;;5097508;28;20024;-86
2021/05/02 01:15:33;;;;;;;17.50;12.40;;;8.20;92.30;;;;;;5097514;28;20118;-86
2021/05/02 01:18:00;;;;;;;20.27;12.53;;;8.20;92.20;;;;;;5097489;28;20081;-86
2021/05/02 01:20:37;;;;;;;19.13;12.30;;;8.20;92.30;;;;;;5096887;28;20088;-86
2021/05/02 01:23:10;;;;;;;19.80;11.77;;;8.10;92.30;;;;;;5097374;28;20027;-86
2021/05/02 01:25:36;;;;;;;16.47;11.40;;;8.10;92.40;;;;;;5097334;28;20027;-86
2021/05/02 01:28:04;;;;;;;16.40;11.43;;;8.10;92.40;;;;;;5097194;28;20463;-86
2021/05/02 01:30:30;;;;;;;18.97;11.53;;;8.20;92.20;;;;;;5096635;28;20051;-87
2021/05/02 01:32:56;;;;;;;17.27;12.20;;;8.20;92.20;;;;;;5097244;28;20038;-86
2021/05/02 01:35:22;;;;;;;18.47;12.60;;;8.20;92.30;;;;;;5097488;28;20036;-86
2021/05/02 01:37:50;;;;;;;19.20;12.23;;;8.20;92.30;;;;;;5096891;28;20395;-86
2021/05/02 01:40:17;;;;;;;14.90;10.63;;;8.10;92.30;;;;;;5096566;28;20028;-87
2021/05/02 01:42:43;;;;;;;19.20;11.53;;;8.10;92.50;;;;;;5115136;28;20019;-86
2021/05/02 01:45:10;;;;;;;18.43;11.07;;;8.10;92.50;;;;;;5097451;28;20119;-86
2021/05/02 01:47:41;;;;;;;18.10;11.37;;;8.10;92.30;;;;;;5119470;22;20046;-82
2021/05/02 01:50:09;;;;;;;18.20;10.57;;;8.10;92.20;;;;;;5100049;28;20475;-84
2021/05/02 01:52:42;;;;;;;17.70;10.63;;;8.20;92.20;;;;;;5099993;28;20023;-84
2021/05/02 01:55:08;;;;;;;16.53;10.47;;;8.30;92.00;;;;;;5099692;28;20101;-83
2021/05/02 01:57:34;;;;;;;15.87;9.97;;;8.30;91.90;;;;;;5100025;28;20430;-85
2021/05/02 02:00:24;;;;;;;15.47;9.60;;;8.40;91.70;;;;;;5099651;28;20031;-83
2021/05/02 02:02:52;;;;;;;15.70;9.30;;;8.30;91.90;;;;;;5118629;28;20020;-84
2021/05/02 02:05:22;;;;;;;16.70;10.53;;;8.40;91.80;;;;;;5100247;28;20091;-83
2021/05/02 02:07:49;;;;;;;16.03;10.03;;;8.40;91.90;;;;;;5100127;28;20123;-85
2021/05/02 02:10:20;;;;;;;19.03;10.40;;;8.30;92.00;;;;;;5099300;28;20016;-85
2021/05/02 02:12:46;;;;;;;16.53;10.47;;;8.30;92.00;;;;;;5100388;28;20063;-84
2021/05/02 02:15:13;;;;;;;15.17;10.60;;;8.20;92.20;;;;;;5099871;28;20024;-83
2021/05/02 02:17:39;;;;;;;20.40;10.67;;;8.10;92.20;;;;;;5116863;28;20486;-83
2021/05/02 02:20:06;;;;;;;18.17;10.77;;;8.10;92.40;;;;;;5099482;28;20027;-84
2021/05/02 02:22:41;;;;;;;16.77;10.70;;;8.10;92.30;;;;;;5099916;28;20372;-84
2021/05/02 02:25:09;;;;;;;19.30;10.83;;;8.10;92.30;;;;;;5100072;28;20081;-83
2021/05/02 02:27:35;;;;;;;18.30;11.73;;;8.10;92.30;;;;;;5099820;28;20266;-84
2021/05/02 02:30:09;;;;;;;20.07;11.00;;;8.10;92.30;;;;;;5117486;28;20379;-82
2021/05/02 02:32:41;;;;;;;17.40;11.07;;;8.10;92.30;;;;;;5099660;28;20020;-85
2021/05/02 02:35:08;;;;;;;18.33;11.53;;;8.00;92.40;;;;;;5116542;28;20135;-85
2021/05/02 02:37:37;;;;;;;17.47;11.17;;;8.00;92.50;;;;;;5099968;28;20030;-83
2021/05/02 02:40:06;;;;;;;17.50;12.05;;;8.10;92.40;;;;;;5099385;28;20027;-85
2021/05/02 02:42:35;;;;;;;19.60;12.37;;;8.10;92.50;;;;;;5100167;28;20049;-85
2021/05/02 02:45:05;;;;;;;29.60;15.88;;;8.10;92.40;;;;;;5100794;28;20024;-83
2021/05/02 02:47:43;;;;;;;26.03;16.30;;;8.00;92.50;;;;;;5117321;28;20032;-83
2021/05/02 02:50:11;;;;;;;27.87;16.73;;;7.90;92.90;;;;;;5097867;28;20016;-85
2021/05/02 02:52:49;;;;;;;28.97;17.30;;;7.80;93.00;;;;;;5098299;28;20031;-82
2021/05/02 02:55:21;;;;;;;28.17;16.83;;;7.80;93.00;;;;;;5099259;28;20297;-83
2021/05/02 02:57:49;;;;;;;26.90;16.63;;;7.80;93.10;;;;;;5098812;28;20045;-84
2021/05/02 03:00:19;;;;;;;30.80;18.08;;;7.80;93.10;;;;;;5099082;28;20100;-85
2021/05/02 03:02:47;;;;;;;;;;;7.80;93.20;;;;;;5099297;28;20030;-85
2021/05/02 03:05:14;;;;;;;27.57;16.40;;;7.90;93.10;;;;;;5099530;28;19904;-83
2021/05/02 03:07:41;;;;;;;23.83;15.37;;;7.80;93.00;;;;;;5117894;28;20183;-83
2021/05/02 03:10:09;;;;;;;25.60;16.63;;;7.80;92.80;;;;;;5098772;28;20031;-84
2021/05/02 03:12:37;;;;;;;22.93;15.57;;;7.80;93.00;;;;;;5099603;28;20051;-83
2021/05/02 03:15:03;;;;;;;25.10;15.63;;;7.90;93.10;;;;;;5098874;28;20076;-85
2021/05/02 03:17:30;;;;;;;28.87;16.47;;;7.90;92.60;;;;;;5098531;28;20115;-82
2021/05/02 03:20:07;;;;;;;24.80;16.37;;;7.90;92.60;;;;;;5116771;28;20120;-85
2021/05/02 03:22:48;;;;;;;25.87;16.60;;;7.90;92.70;;;;;;5098388;28;20031;-84
2021/05/02 03:25:14;;;;;;;26.20;17.03;;;7.80;93.00;;;;;;5099000;28;20400;-83
2021/05/02 03:27:51;;;;;;;25.50;15.90;;;7.80;93.00;;;;;;5098867;28;20023;-83
2021/05/02 03:30:21;;;;;;;25.30;15.43;;;7.80;93.00;;;;;;5098762;28;20024;-85
2021/05/02 03:32:49;;;;;;;25.97;15.53;;;7.80;92.90;;;;;;5099248;28;20506;-84
2021/05/02 03:35:17;;;;;;;27.73;16.07;;;7.80;93.00;;;;;;5099725;28;20024;-84
2021/05/02 03:37:49;;;;;;;26.23;16.20;;;7.70;93.00;;;;;;5098976;28;20030;-84
2021/05/02 03:40:16;;;;;;;31.03;17.87;;;7.70;93.00;;;;;;5098832;28;20019;-83
2021/05/02 03:42:41;;;;;;;24.70;15.90;;;7.70;92.70;;;;;;5098922;28;20098;-85
2021/05/02 03:45:08;;;;;;;26.67;16.20;;;7.60;92.90;;;;;;5099447;28;20499;-84
2021/05/02 03:47:33;;;;;;;26.27;16.93;;;7.60;93.10;;;;;;5098836;28;20107;-85
2021/05/02 03:49:59;;;;;;;28.63;15.97;;;7.60;93.20;;;;;;5098911;28;20066;-85
2021/05/02 03:52:25;;;;;;;25.07;16.07;;;7.60;93.10;;;;;;5117066;28;20024;-85
2021/05/02 03:54:54;;;;;;;25.27;15.97;;;7.60;93.10;;;;;;5098546;28;20051;-83
2021/05/02 03:57:20;;;;;;;27.88;15.68;;;7.50;93.10;;;;;;5097724;28;20034;-84
2021/05/02 03:59:46;;;;;;;27.67;15.57;;;7.50;93.30;;;;;;5096631;28;20031;-83
2021/05/02 04:02:14;;;;;;;24.37;15.20;;;7.50;93.00;;;;;;5097829;28;20024;-84
2021/05/02 04:04:41;;;;;;;25.20;15.33;;;7.60;93.10;;;;;;5098105;28;20091;-84
2021/05/02 04:07:10;;;;;;;25.63;16.00;;;7.70;92.80;;;;;;5097866;28;20062;-83
2021/05/02 04:09:37;;;;;;;27.48;15.68;;;7.60;92.90;;;;;;5097704;28;20050;-84
2021/05/02 04:12:03;;;;;;;28.53;16.40;;;7.70;92.90;;;;;;5116199;28;20070;-83
2021/05/02 04:14:29;;;;;;;31.67;17.37;;;7.80;92.80;;;;;;5097649;28;20030;-85
2021/05/02 04:17:00;;;;;;;34.33;19.30;;;7.80;92.90;;;;;;5115717;28;20087;-83
2021/05/02 04:19:27;;;;;;;34.07;18.83;;;7.70;92.80;;;;;;5115850;28;20047;-84
2021/05/02 04:21:53;;;;;;;35.40;18.80;;;7.70;92.80;;;;;;5098458;28;20088;-83
2021/05/02 04:24:20;;;;;;;33.07;18.23;;;7.60;92.90;;;;;;5097906;28;20041;-84
2021/05/02 04:26:47;;;;;;;37.73;19.07;;;7.50;93.20;;;;;;5097859;28;20024;-84
2021/05/02 04:29:12;;;;;;;33.73;17.73;;;7.50;93.10;;;;;;5096596;28;20035;-83
2021/05/02 04:31:38;;;;;;;31.83;17.47;;;7.50;93.00;;;;;;5097708;28;20024;-85
2021/05/02 04:34:05;;;;;;;31.67;16.50;;;7.50;93.10;;;;;;5115799;28;20027;-82
2021/05/02 04:36:31;;;;;;;32.47;16.67;;;7.60;92.80;;;;;;5097720;28;20453;-84
2021/05/02 04:38:58;;;;;;;28.67;16.67;;;7.50;92.90;;;;;;5096967;28;20131;-84
2021/05/02 04:41:24;;;;;;;28.73;15.73;;;7.50;92.90;;;;;;5100118;28;20073;-83
2021/05/02 04:43:49;;;;;;;29.73;17.13;;;7.40;93.10;;;;;;5101876;28;20020;-84
2021/05/02 04:46:16;;;;;;;27.03;15.80;;;7.50;93.20;;;;;;5102801;28;20114;-83
2021/05/02 04:48:43;;;;;;;30.53;14.93;;;7.50;93.10;;;;;;5102897;28;20042;-83
2021/05/02 04:51:10;;;;;;;29.03;14.97;;;7.60;93.00;;;;;;5102879;28;20369;-85
2021/05/02 04:53:35;;;;;;;26.93;14.70;;;7.50;93.20;;;;;;5121144;28;20031;-83
2021/05/02 04:56:01;;;;;;;29.97;15.13;;;7.60;93.00;;;;;;5102665;28;20023;-85
2021/05/02 04:58:27;;;;;;;31.83;15.50;;;7.40;92.90;;;;;;5101795;28;20118;-82
2021/05/02 05:00:52;;;;;;;27.70;14.23;;;7.50;93.10;;;;;;5101887;28;20490;-84
2021/05/02 05:03:18;;;;;;;24.90;13.97;;;7.50;93.00;;;;;;5120058;28;20539;-82
2021/05/02 05:05:44;;;;;;;22.47;12.60;;;7.60;92.90;;;;;;5118810;28;20457;-83
2021/05/02 05:08:10;;;;;;;21.73;11.90;;;7.60;92.70;;;;;;5117856;28;20028;-83
2021/05/02 05:10:36;;;;;;;22.07;11.63;;;7.60;92.60;;;;;;5099061;28;20028;-83
2021/05/02 05:13:03;;;;;;;17.27;10.87;;;7.70;92.50;;;;;;5099350;28;20407;-82
2021/05/02 05:15:28;;;;;;;20.17;10.90;;;7.60;92.50;;;;;;5099751;28;20034;-82
2021/05/02 05:17:54;;;;;;;16.40;10.23;;;7.60;92.50;;;;;;5118119;28;20035;-82
2021/05/02 05:20:20;;;;;;;17.50;9.37;;;7.60;92.30;;;;;;5100101;28;20035;-84
2021/05/02 05:22:46;;;;;;;15.70;8.90;;;7.60;92.10;;;;;;5118444;28;20031;-82
2021/05/02 05:25:12;;;;;;;14.70;8.27;;;7.50;92.00;;;;;;5118468;28;20020;-83
2021/05/02 05:27:38;;;;;;;16.73;8.40;;;7.50;91.90;;;;;;5099349;28;20422;-83
2021/05/02 05:30:05;;;;;;;16.50;9.13;;;7.60;92.10;;;;;;5099471;28;20084;-84
2021/05/02 05:32:31;;;;;;;15.60;7.63;;;7.60;91.80;;;;;;5117571;28;20088;-83
2021/05/02 05:34:56;;;;;;;14.07;6.77;;;7.70;91.70;;;;;;5099954;28;20431;-83
2021/05/02 05:37:22;;;;;;;13.87;6.70;;;7.80;91.60;;;;;;5100297;28;20039;-83
2021/05/02 05:39:48;;;;;;;14.93;6.53;;;7.70;91.50;;;;;;5118864;28;20030;-83
2021/05/02 05:42:14;;;;;;;14.13;6.53;;;7.70;91.20;;;;;;5118144;28;20079;-83
2021/05/02 05:44:39;;;;;;;15.00;7.67;;;7.70;91.20;;;;;;5099578;28;20059;-85
2021/05/02 05:47:05;;;;;;;14.73;6.83;;;7.70;91.40;;;;;;5099616;28;20035;-83
2021/05/02 05:49:31;;;;;;;18.20;6.10;;;7.70;91.50;;;;;;5117542;28;20106;-83
2021/05/02 05:51:57;;;;;;;9.13;5.17;;;7.70;91.20;;;;;;5117650;28;20031;-82
2021/05/02 05:54:23;;;;;;;16.83;5.77;;;7.80;91.00;;;;;;5118846;28;20396;-84
2021/05/02 05:56:49;;;;;;;12.57;6.13;;;7.80;91.00;;;;;;5099927;28;20023;-82
2021/05/02 05:59:15;;;;;;;15.13;6.77;;;7.90;91.00;;;;;;5100270;28;20034;-84
2021/05/02 06:01:41;;;;;;;17.30;5.70;;;7.90;90.90;;;;;;5118614;28;20055;-83
2021/05/02 06:04:07;;;;;;;10.93;5.50;;;8.00;91.00;;;;;;5100710;28;20077;-83
2021/05/02 06:06:35;;;;;;;11.33;4.63;;;8.00;90.80;;;;;;5100301;28;20023;-82
2021/05/02 06:09:06;;;;;;;11.17;4.70;;;8.00;90.50;;;;;;5098403;28;20436;-83
2021/05/02 06:11:33;;;;;;;13.50;4.97;;;7.90;90.70;;;;;;5098989;28;20027;-82
2021/05/02 06:13:59;;;;;;;11.83;5.47;;;7.80;90.90;;;;;;5099488;28;20476;-84
2021/05/02 06:16:25;;;;;;;16.27;6.93;;;7.90;90.80;;;;;;5099179;28;20160;-84
2021/05/02 06:18:55;;;;;;;8.37;4.10;;;7.80;90.80;;;;;;5099095;28;20027;-82
2021/05/02 06:21:22;;;;;;;9.33;4.73;;;7.90;91.00;;;;;;5117918;28;20468;-83
2021/05/02 06:23:49;;;;;;;10.40;3.90;;;7.90;90.70;;;;;;5099411;28;20119;-84
2021/05/02 06:26:16;;;;;;;9.93;4.30;;;7.90;90.90;;;;;;5099702;28;20038;-83
2021/05/02 06:28:42;;;;;;;10.17;4.00;;;7.80;90.40;;;;;;5117611;28;20073;-83
2021/05/02 06:31:08;;;;;;;11.97;3.70;;;7.80;90.60;;;;;;5118396;28;20033;-82
2021/05/02 06:33:35;;;;;;;8.80;3.90;;;7.80;90.60;;;;;;5118297;28;20024;-83
2021/05/02 06:36:01;;;;;;;14.20;4.10;;;7.90;90.70;;;;;;5100000;28;20027;-84
2021/05/02 06:38:27;;;;;;;9.93;3.93;;;7.90;91.10;;;;;;5100091;28;20408;-84
2021/05/02 06:40:52;;;;;;;10.10;3.83;;;7.80;90.60;;;;;;5117451;28;20024;-82
2021/05/02 06:43:18;;;;;;;7.87;3.17;;;7.80;90.60;;;;;;5099331;28;20035;-82
2021/05/02 06:45:44;;;;;;;9.13;3.03;;;7.70;90.70;;;;;;5099488;28;20023;-84
2021/05/02 06:48:09;;;;;;;12.30;3.30;;;7.80;90.80;;;;;;5101200;28;20161;-84
2021/05/02 06:50:35;;;;;;;9.83;3.23;;;7.70;90.60;;;;;;5101174;28;20024;-85
2021/05/02 06:53:01;;;;;;;10.07;3.37;;;7.80;90.80;;;;;;5101555;28;20024;-83
2021/05/02 06:55:27;;;;;;;10.73;3.80;;;7.80;90.70;;;;;;5099335;28;20426;-84
2021/05/02 06:57:55;;;;;;;9.00;3.37;;;7.90;90.60;;;;;;5099768;28;20019;-84
2021/05/02 07:00:21;;;;;;;7.47;3.30;;;7.90;90.70;;;;;;5099244;28;20028;-84
2021/05/02 07:02:46;;;;;;;12.10;4.53;;;7.90;90.60;;;;;;5099362;28;20507;-84
2021/05/02 07:05:12;;;;;;;11.83;3.13;;;7.90;90.80;;;;;;5117752;28;20055;-83
2021/05/02 07:07:38;;;;;;;11.43;3.60;;;7.80;90.60;;;;;;5099328;28;20019;-85
2021/05/02 07:10:05;;;;;;;9.73;3.60;;;7.70;90.70;;;;;;5098497;28;20392;-85
2021/05/02 07:12:31;;;;;;;6.67;3.47;;;7.70;90.90;;;;;;5099385;28;20026;-83
2021/05/02 07:14:56;;;;;;;9.20;3.00;;;7.70;91.00;;;;;;5118052;28;20028;-84
2021/05/02 07:17:22;;;;;;;11.43;3.40;;;7.90;90.80;;;;;;5117390;28;20041;-83
2021/05/02 07:19:51;;;;;;;10.53;3.33;;;7.90;90.50;;;;;;5097762;28;20024;-83
2021/05/02 07:22:18;;;;;;;8.80;3.50;;;7.90;90.60;;;;;;5098147;28;20031;-83
2021/05/02 07:24:48;;;;;;;8.57;3.60;;;8.00;90.40;;;;;;5098024;28;20028;-85
2021/05/02 07:27:13;;;;;;;;;;;8.10;90.50;;;;;;5116982;28;20066;-83
2021/05/02 07:29:39;;;;;;;9.17;3.37;;;8.10;90.30;;;;;;5115726;28;19904;-83
2021/05/02 07:32:04;;;;;;;8.87;3.20;;;8.00;90.10;;;;;;5097516;28;20111;-83
2021/05/02 07:34:30;;;;;;;8.03;3.60;;;8.00;90.10;;;;;;5097920;28;20057;-85
2021/05/02 07:36:56;;;;;;;8.20;3.37;;;8.00;90.60;;;;;;5097638;28;20050;-83
2021/05/02 07:39:23;;;;;;;8.13;3.17;;;8.10;90.40;;;;;;5097602;28;20054;-82
2021/05/02 07:41:49;;;;;;;9.53;2.73;;;8.20;90.30;;;;;;5116279;28;20019;-84
2021/05/02 07:44:14;;;;;;;11.90;3.57;;;8.20;88.60;;;;;;5097468;28;20114;-86
2021/05/02 07:46:40;;;;;;;6.47;3.10;;;8.40;88.10;;;;;;5097365;28;20149;-83
2021/05/02 07:49:06;;;;;;;6.60;3.50;;;8.40;88.10;;;;;;5107896;22;20058;-87
2021/05/02 07:51:33;;;;;;;8.07;2.53;;;8.40;87.80;;;;;;5094551;28;20414;-87
2021/05/02 07:53:58;;;;;;;8.40;2.90;;;8.40;85.70;;;;;;5094683;28;20023;-87
2021/05/02 07:56:24;;;;;;;6.87;2.30;;;8.40;85.30;;;;;;5113256;28;20380;-87
2021/05/02 07:58:50;;;;;;;8.47;2.40;;;8.50;84.80;;;;;;5113282;28;20015;-87
2021/05/02 08:01:16;;;;;;;5.67;2.43;;;8.50;84.40;;;;;;5094430;28;20046;-87
2021/05/02 08:03:41;;;;;;;6.97;2.40;;;8.50;84.50;;;;;;5094272;28;20023;-86
2021/05/02 08:06:07;;;;;;;9.40;2.70;;;8.40;82.60;;;;;;5094451;28;20115;-87
2021/05/02 08:08:33;;;;;;;6.60;2.30;;;8.40;84.00;;;;;;5112815;28;20030;-87
2021/05/02 08:10:58;;;;;;;5.13;2.27;;;8.40;83.70;;;;;;5111963;28;20024;-87
2021/05/02 08:13:24;;;;;;;7.20;2.20;;;8.50;83.60;;;;;;5094247;28;20027;-87
2021/05/02 08:15:49;;;;;;;5.23;2.50;;;8.50;83.80;;;;;;5094222;28;20035;-87
2021/05/02 08:18:15;;;;;;;9.70;2.97;;;8.70;84.40;;;;;;5094156;28;20023;-87
2021/05/02 08:20:41;;;;;;;8.23;2.50;;;8.70;83.10;;;;;;5093757;28;20016;-87
2021/05/02 08:23:08;;;;;;;6.93;2.40;;;8.70;83.40;;;;;;5094094;28;20433;-87
2021/05/02 08:25:34;;;;;;;7.30;2.30;;;8.80;83.50;;;;;;5094296;28;20372;-87
2021/05/02 08:27:59;;;;;;;6.13;2.40;;;8.80;83.10;;;;;;5094065;28;20030;-87
2021/05/02 08:30:25;;;;;;;4.40;2.10;;;8.70;82.20;;;;;;5093748;28;20023;-87
2021/05/02 08:32:51;;;;;;;7.13;2.63;;;8.80;81.30;;;;;;5094212;28;20457;-87
2021/05/02 08:35:16;;;;;;;7.10;2.60;;;8.80;81.50;;;;;;5094233;28;20365;-87
2021/05/02 08:37:42;;;;;;;6.47;2.30;;;8.90;81.40;;;;;;5094144;28;20111;-87
2021/05/02 08:40:09;;;;;;;6.13;2.43;;;8.90;81.90;;;;;;5111597;28;20049;-87
2021/05/02 08:42:36;;;;;;;8.13;2.23;;;8.90;81.90;;;;;;5077344;28;20430;-87
2021/05/02 08:45:04;;;;;;;5.47;2.40;;;8.80;81.30;;;;;;5112517;28;20093;-87
2021/05/02 08:47:35;;;;;;;5.53;2.63;;;8.80;81.40;;;;;;5112032;28;20446;-87
2021/05/02 08:50:06;;;;;;;12.50;3.30;;;8.80;82.40;;;;;;5093415;28;20032;-87
2021/05/02 08:52:32;;;;;;;8.43;3.10;;;8.70;82.90;;;;;;5094018;28;20020;-87
2021/05/02 08:54:58;;;;;;;7.37;2.73;;;8.70;82.90;;;;;;5093978;28;20035;-87
2021/05/02 08:57:23;;;;;;;5.80;2.33;;;8.80;80.90;;;;;;5094016;28;20023;-87
2021/05/02 08:59:49;;;;;;;13.83;3.37;;;8.90;80.40;;;;;;5093399;28;20499;-87
2021/05/02 09:02:26;;;;;;;6.60;2.20;;;9.00;79.10;;;;;;5111899;28;20035;-87
2021/05/02 09:04:54;;;;;;;10.20;2.83;;;9.10;77.60;;;;;;5094006;28;20051;-87
2021/05/02 09:07:19;;;;;;;5.60;2.50;;;9.20;77.90;;;;;;5093886;28;20024;-87
2021/05/02 09:09:46;;;;;;;7.77;2.40;;;9.20;78.50;;;;;;5095494;28;20499;-87
2021/05/02 09:12:23;;;;;;;5.80;2.30;;;9.20;77.70;;;;;;5093751;28;20031;-87
2021/05/02 09:14:49;;;;;;;4.10;2.20;;;9.20;77.70;;;;;;5093789;28;20035;-87
2021/05/02 09:17:29;;;;;;;6.33;1.90;;;9.10;75.00;;;;;;5093661;28;20031;-87
2021/05/02 09:20:01;;;;;;;5.17;2.43;;;9.10;75.10;;;;;;5093099;28;20035;-87
2021/05/02 09:22:27;;;;;;;6.90;2.83;;;9.20;75.40;;;;;;5093580;28;20601;-87
2021/05/02 09:25:04;;;;;;;8.90;3.03;;;9.20;73.90;;;;;;5093701;28;20118;-86
2021/05/02 09:27:29;;;;;;;6.47;2.40;;;9.20;74.10;;;;;;5095826;28;20023;-87
2021/05/02 09:30:12;;;;;;;5.40;1.93;;;9.20;74.30;;;;;;5096762;28;20032;-87
2021/05/02 09:32:45;;;;;;;4.67;1.87;;;9.20;74.40;;;;;;5115537;28;20023;-87
2021/05/02 09:35:28;;;;;;;8.73;2.57;;;9.20;71.40;;;;;;5097392;28;20474;-86
2021/05/02 09:38:13;;;;;;;6.07;1.93;;;9.40;71.90;;;;;;5097307;28;20111;-87
2021/05/02 09:40:55;;;;;;;5.37;2.00;;;9.40;70.90;;;;;;5096697;28;20061;-87
2021/05/02 09:44:03;;;;;;;6.00;2.80;;;9.40;71.60;;;;;;5097182;28;20058;-87
2021/05/02 09:46:33;;;;;;;7.87;3.07;;;9.50;72.30;;;;;;5052728;28;20475;-87
2021/05/02 09:48:59;;;;;;;6.37;1.87;;;9.40;72.50;;;;;;5096750;28;20085;-87
2021/05/02 09:51:26;;;;;;;4.90;1.97;;;9.50;70.30;;;;;;5097209;28;20031;-87
2021/05/02 09:54:10;;;;;;;4.87;1.53;;;9.50;68.60;;;;;;5115278;28;20024;-87
2021/05/02 09:56:52;;;;;;;8.27;1.73;;;9.50;69.00;;;;;;5097085;28;20083;-87
2021/05/02 09:59:30;;;;;;;9.80;2.00;;;9.50;70.50;;;;;;5114923;28;20019;-87
2021/05/02 10:02:11;;;;;;;5.00;1.70;;;9.50;70.50;;;;;;5115134;28;20027;-87
2021/05/02 10:04:46;;;;;;;3.87;1.63;;;9.60;71.00;;;;;;5096851;28;20475;-87
2021/05/02 10:07:13;;;;;;;5.97;1.83;;;9.80;69.40;;;;;;5115126;28;20073;-87
2021/05/02 10:09:40;;;;;;;4.77;1.50;;;9.80;68.60;;;;;;5114902;28;20030;-87
2021/05/02 10:12:07;;;;;;;4.60;1.77;;;9.70;68.10;;;;;;5097079;28;20031;-87
2021/05/02 10:14:34;;;;;;;6.33;1.73;;;9.70;67.30;;;;;;5097055;28;20032;-87
2021/05/02 10:17:03;;;;;;;6.23;1.70;;;9.80;66.90;;;;;;5097203;28;20020;-87
2021/05/02 10:19:30;;;;;;;3.83;1.90;;;9.90;66.10;;;;;;5114377;28;20027;-87
2021/05/02 10:21:56;;;;;;;3.40;1.60;;;10.00;67.20;;;;;;5096737;28;20034;-88
2021/05/02 10:24:31;;;;;;;4.90;1.97;;;10.10;66.90;;;;;;5097545;28;20094;-87
2021/05/02 10:27:19;;;;;;;6.57;2.70;;;10.10;66.60;;;;;;5083694;28;20051;-87
2021/05/02 10:29:49;;;;;;;6.40;1.73;;;10.10;65.20;;;;;;5099395;28;20020;-87
2021/05/02 10:32:20;;;;;;;4.23;1.60;;;10.10;60.40;;;;;;5101183;28;20057;-87
2021/05/02 10:34:51;;;;;;;4.73;1.83;;;10.10;59.50;;;;;;5099821;28;20088;-87
2021/05/02 10:37:30;;;;;;;4.17;1.83;;;10.00;60.50;;;;;;5115379;28;20062;-87
2021/05/02 10:39:59;;;;;;;;;;;9.90;62.30;;;;;;5115192;28;20027;-87
2021/05/02 10:42:49;;;;;;;3.33;1.50;;;9.90;62.90;;;;;;5096908;28;19911;-87
2021/05/02 10:45:41;;;;;;;4.90;1.73;;;9.90;64.10;;;;;;5114904;28;20544;-87
2021/05/02 10:48:09;;;;;;;5.37;2.10;;;9.80;64.70;;;;;;5096260;28;20027;-87
2021/05/02 10:50:46;;;;;;;6.37;1.90;;;9.80;65.20;;;;;;5095853;28;20020;-88
2021/05/02 10:53:14;;;;;;;5.53;2.03;;;9.70;65.90;;;;;;5096444;28;20438;-87
2021/05/02 10:56:00;;;;;;;6.23;2.03;;;9.80;66.00;;;;;;5096402;28;20031;-87
2021/05/02 10:58:32;;;;;;;5.47;1.80;;;9.70;64.70;;;;;;5095877;28;20281;-87
2021/05/02 11:01:02;;;;;;;7.33;2.60;;;9.80;61.60;;;;;;5095287;28;20471;-87
2021/05/02 11:03:40;;;;;;;6.23;1.67;;;9.90;60.50;;;;;;5114203;28;20026;-88
2021/05/02 11:06:44;;;;;;;4.43;1.37;;;9.90;60.00;;;;;;5112028;28;20066;-87
2021/05/02 11:09:12;;;;;;;6.27;1.80;;;9.90;60.80;;;;;;5029961;28;20117;-87
2021/05/02 11:11:59;;;;;;;;;;;9.80;62.10;;;;;;5101582;28;20503;-87
2021/05/02 11:14:30;;;;;;;4.83;1.90;;;9.80;62.90;;;;;;5095719;28;20378;-87
2021/05/02 11:17:18;;;;;;;4.47;1.70;;;9.90;63.40;;;;;;5109720;28;20032;-87
2021/05/02 11:19:51;;;;;;;5.03;2.10;;;9.90;63.90;;;;;;5093486;28;20032;-87
2021/05/02 11:22:20;;;;;;;5.00;2.20;;;9.90;63.40;;;;;;5095445;28;20486;-88
2021/05/02 11:24:55;;;;;;;4.55;2.30;;;9.80;62.70;;;;;;5078478;28;20050;-87
2021/05/02 11:28:01;;;;;;;5.93;1.83;;;9.80;63.40;;;;;;5094573;28;20110;-87
2021/05/02 11:30:27;;;;;;;8.20;1.77;;;9.80;63.50;;;;;;5094734;28;20023;-87
2021/05/02 11:32:55;;;;;;;4.47;1.90;;;9.90;63.80;;;;;;5113989;28;20031;-87
2021/05/02 11:35:44;;;;;;;5.80;2.37;;;9.90;64.20;;;;;;5114004;28;20054;-86
2021/05/02 11:38:15;;;;;;;5.10;1.75;;;10.00;64.30;;;;;;5112892;28;20023;-86
2021/05/02 11:40:41;;;;;;;4.73;1.70;;;10.00;64.60;;;;;;5094728;28;20075;-87
2021/05/02 11:43:16;;;;;;;5.13;2.33;;;10.10;64.50;;;;;;5094922;28;20026;-87
2021/05/02 11:45:43;;;;;;;4.63;1.60;;;10.10;63.60;;;;;;5094951;28;20016;-87
2021/05/02 11:48:35;;;;;;;5.43;1.70;;;10.10;61.80;;;;;;5111791;28;20032;-87
2021/05/02 11:51:05;;;;;;;4.00;1.70;;;10.10;61.30;;;;;;5094161;28;20102;-87
2021/05/02 11:53:41;;;;;;;4.63;2.00;;;10.10;61.30;;;;;;5094854;28;20023;-87
2021/05/02 11:56:29;;;;;;;5.50;1.53;;;10.10;61.60;;;;;;5113341;28;20027;-87
2021/05/02 11:58:57;;;;;;;5.87;2.03;;;10.20;61.00;;;;;;5094391;28;20030;-86
2021/05/02 12:01:30;;;;;;;3.37;1.43;;;10.20;61.00;;;;;;5094779;28;20026;-87
2021/05/02 12:04:17;;;;;;;4.47;1.70;;;10.20;60.60;;;;;;5113499;28;20531;-87
2021/05/02 12:06:43;;;;;;;3.93;1.33;;;10.20;60.10;;;;;;5094946;28;20026;-87
2021/05/02 12:09:19;;;;;;;3.30;1.53;;;10.20;58.10;;;;;;5112692;28;20102;-87
2021/05/02 12:11:52;;;;;;;3.90;1.40;;;10.30;58.70;;;;;;5095202;28;20480;-87
2021/05/02 12:14:20;;;;;;;6.13;1.50;;;10.30;58.00;;;;;;5113516;28;20557;-87
2021/05/02 12:16:53;;;;;;;4.20;1.30;;;10.30;57.70;;;;;;5095119;28;20031;-87
2021/05/02 12:19:18;;;;;;;2.63;1.27;;;10.40;57.00;;;;;;5112323;28;20020;-87
2021/05/02 12:21:48;;;;;;;2.57;1.20;;;10.50;56.90;;;;;;5094674;28;20425;-87
2021/05/02 12:24:15;;;;;;;3.93;1.50;;;10.60;56.20;;;;;;5113233;28;20019;-87
2021/05/02 12:26:58;;;;;;;5.00;1.87;;;10.60;55.60;;;;;;5094660;28;20030;-87
2021/05/02 12:29:24;;;;;;;4.70;1.63;;;10.50;55.90;;;;;;5094009;28;20502;-87
2021/05/02 12:32:00;;;;;;;3.43;1.30;;;10.40;56.40;;;;;;5112622;28;20032;-88
2021/05/02 12:34:31;;;;;;;8.27;2.83;;;10.40;57.70;;;;;;5094442;28;20031;-87
2021/05/02 12:37:06;;;;;;;6.43;2.50;;;10.40;58.90;;;;;;5112491;28;20024;-87
2021/05/02 12:39:33;;;;;;;8.97;2.20;;;10.40;59.00;;;;;;5093904;28;20050;-87
2021/05/02 12:41:59;;;;;;;6.50;1.80;;;10.40;59.20;;;;;;5094384;28;20529;-87
2021/05/02 12:44:26;;;;;;;2.90;1.70;;;10.30;59.40;;;;;;5094388;28;20019;-87
2021/05/02 12:46:54;;;;;;;3.90;1.73;;;10.20;60.20;;;;;;5094367;28;20020;-87
2021/05/02 12:49:27;;;;;;;4.93;1.60;;;10.10;60.70;;;;;;5093569;28;20385;-87
2021/05/02 12:51:54;;;;;;;6.43;1.70;;;10.10;61.10;;;;;;5093958;28;20028;-87
2021/05/02 12:54:25;;;;;;;3.60;1.90;;;10.10;63.50;;;;;;5094194;28;20054;-87
2021/05/02 12:57:08;;;;;;;5.27;1.83;;;10.10;63.70;;;;;;5094266;28;20024;-88
2021/05/02 12:59:58;;;;;;;4.97;1.63;;;10.00;65.50;;;;;;5112079;28;20102;-88
2021/05/02 13:02:43;;;;;;;4.23;1.37;;;9.90;66.80;;;;;;5096544;28;20100;-87